createdAt,value
2023-04-15T00:00:18.697Z,67.63
2023-04-15T00:01:18.751Z,67.73
2023-04-15T00:02:18.972Z,67.73
2023-04-15T00:03:19.207Z,67.83
2023-04-15T00:04:19.055Z,68.04
2023-04-15T00:05:19.101Z,67.73
2023-04-15T00:06:19.144Z,67.73
2023-04-15T00:07:19.259Z,67.66
2023-04-15T00:08:19.352Z,67.76
2023-04-15T00:09:19.425Z,67.66
2023-04-15T00:10:19.496Z,67.66
2023-04-15T00:11:19.559Z,67.66
2023-04-15T00:12:19.622Z,67.76
2023-04-15T00:13:19.850Z,67.76
2023-04-15T00:14:19.801Z,67.76
2023-04-15T00:15:19.917Z,67.97
2023-04-15T00:16:20.035Z,67.97
2023-04-15T00:17:20.163Z,67.86
2023-04-15T00:18:20.153Z,67.86
2023-04-15T00:19:20.262Z,67.97
2023-04-15T00:20:20.313Z,67.97
2023-04-15T00:21:20.408Z,67.97
2023-04-15T00:22:20.507Z,68.14
2023-04-15T00:23:20.611Z,68.04
2023-04-15T00:24:20.654Z,68.14
2023-04-15T00:25:20.776Z,68.14
2023-04-15T00:26:20.806Z,68.24
2023-04-15T00:27:20.917Z,68.24
2023-04-15T00:28:21.010Z,68.24
2023-04-15T00:29:21.065Z,68.24
2023-04-15T00:30:21.134Z,68.24
2023-04-15T00:31:21.316Z,68.24
2023-04-15T00:32:21.352Z,68.24
2023-04-15T00:33:21.479Z,68.24
2023-04-15T00:34:21.496Z,68.24
2023-04-15T00:35:21.633Z,68.24
2023-04-15T00:36:21.652Z,68.35
2023-04-15T00:37:21.767Z,68.35
2023-04-15T00:38:21.825Z,68.45
2023-04-15T00:39:21.895Z,68.45
2023-04-15T00:40:21.935Z,68.45
2023-04-15T00:41:22.030Z,68.45
2023-04-15T00:42:22.128Z,68.55
2023-04-15T00:43:22.302Z,68.55
2023-04-15T00:44:22.267Z,68.45
2023-04-15T00:45:22.351Z,68.35
2023-04-15T00:46:22.462Z,68.45
2023-04-15T00:47:22.645Z,68.24
2023-04-15T00:48:22.588Z,68.35
2023-04-15T00:49:22.662Z,68.35
2023-04-15T00:50:22.714Z,68.35
2023-04-15T00:51:22.827Z,68.35
2023-04-15T00:52:22.906Z,68.45
2023-04-15T00:53:23.035Z,68.45
2023-04-15T00:54:23.099Z,68.45
2023-04-15T00:55:23.186Z,68.35
2023-04-15T00:56:23.253Z,68.35
2023-04-15T00:57:23.333Z,68.35
2023-04-15T00:58:23.538Z,68.14
2023-04-15T00:59:23.521Z,68.04
2023-04-15T01:00:23.606Z,68.04
2023-04-15T01:01:23.745Z,68.04
2023-04-15T01:02:24.020Z,68.14
2023-04-15T01:03:23.998Z,68.14
2023-04-15T01:04:24.050Z,68.14
2023-04-15T01:05:24.018Z,68.14
2023-04-15T01:06:24.123Z,68.14
2023-04-15T01:07:24.194Z,68.14
2023-04-15T01:08:24.339Z,68.24
2023-04-15T01:09:24.361Z,68.24
2023-04-15T01:10:24.427Z,68.24
2023-04-15T01:11:24.502Z,68.24
2023-04-15T01:12:24.611Z,68.24
2023-04-15T01:13:24.702Z,68.24
2023-04-15T01:14:24.769Z,68.24
2023-04-15T01:15:24.869Z,68.24
2023-04-15T01:16:24.999Z,68.14
2023-04-15T01:17:25.101Z,68.14
2023-04-15T01:18:25.196Z,68.24
2023-04-15T01:19:25.181Z,68.24
2023-04-15T01:20:25.313Z,68.04
2023-04-15T01:21:25.373Z,68.04
2023-04-15T01:22:25.442Z,68.01
2023-04-15T01:23:25.547Z,67.93
2023-04-15T01:24:25.607Z,67.83
2023-04-15T01:25:25.688Z,67.73
2023-04-15T01:26:25.790Z,67.83
2023-04-15T01:27:25.877Z,67.83
2023-04-15T01:28:25.995Z,67.83
2023-04-15T01:29:26.057Z,67.73
2023-04-15T01:30:26.118Z,67.63
2023-04-15T01:31:26.303Z,67.73
2023-04-15T01:32:26.298Z,67.73
2023-04-15T01:33:26.454Z,67.73
2023-04-15T01:34:26.433Z,67.73
2023-04-15T01:35:26.539Z,67.63
2023-04-15T01:36:26.644Z,67.63
2023-04-15T01:37:26.697Z,67.63
2023-04-15T01:38:26.767Z,67.63
2023-04-15T01:39:26.864Z,67.73
2023-04-15T01:40:26.932Z,67.73
2023-04-15T01:41:26.996Z,67.63
2023-04-15T01:42:27.050Z,67.63
2023-04-15T01:43:27.174Z,67.52
2023-04-15T01:44:27.232Z,67.52
2023-04-15T01:45:27.294Z,67.52
2023-04-15T01:46:27.400Z,67.52
2023-04-15T01:47:27.479Z,67.63
2023-04-15T01:48:27.592Z,67.63
2023-04-15T01:49:27.650Z,67.63
2023-04-15T01:50:27.703Z,67.63
2023-04-15T01:51:27.790Z,67.63
2023-04-15T01:52:27.869Z,67.63
2023-04-15T01:53:27.955Z,67.63
2023-04-15T01:54:27.995Z,67.52
2023-04-15T01:55:28.100Z,67.42
2023-04-15T01:56:28.216Z,67.42
2023-04-15T01:57:28.281Z,67.42
2023-04-15T01:58:28.396Z,67.52
2023-04-15T01:59:37.550Z,67.52
2023-04-15T02:00:28.539Z,67.52
2023-04-15T02:01:28.695Z,67.63
2023-04-15T02:02:28.799Z,67.63
2023-04-15T02:03:28.823Z,67.73
2023-04-15T02:04:28.839Z,67.66
2023-04-15T02:05:28.967Z,67.66
2023-04-15T02:06:29.031Z,67.66
2023-04-15T02:07:29.148Z,67.66
2023-04-15T02:08:29.211Z,67.66
2023-04-15T02:09:29.247Z,67.63
2023-04-15T02:10:29.335Z,67.55
2023-04-15T02:11:29.446Z,67.52
2023-04-15T02:12:29.481Z,67.52
2023-04-15T02:13:29.619Z,67.55
2023-04-15T02:14:29.676Z,67.55
2023-04-15T02:15:29.817Z,67.55
2023-04-15T02:16:29.934Z,67.55
2023-04-15T02:17:30.004Z,67.55
2023-04-15T02:18:30.054Z,67.55
2023-04-15T02:19:30.121Z,67.55
2023-04-15T02:20:30.194Z,67.45
2023-04-15T02:21:30.262Z,67.35
2023-04-15T02:22:30.350Z,67.24
2023-04-15T02:23:30.442Z,67.24
2023-04-15T02:24:30.505Z,67.24
2023-04-15T02:25:30.562Z,67.24
2023-04-15T02:26:30.662Z,67.45
2023-04-15T02:27:30.747Z,67.27
2023-04-15T02:28:30.827Z,67.27
2023-04-15T02:29:30.909Z,67.27
2023-04-15T02:30:31.013Z,67.38
2023-04-15T02:31:31.090Z,67.48
2023-04-15T02:32:31.222Z,67.48
2023-04-15T02:33:31.328Z,67.58
2023-04-15T02:34:31.316Z,67.58
2023-04-15T02:35:31.468Z,67.58
2023-04-15T02:36:31.540Z,67.72
2023-04-15T02:37:31.611Z,67.72
2023-04-15T02:38:31.680Z,67.82
2023-04-15T02:39:31.741Z,67.82
2023-04-15T02:40:31.826Z,67.72
2023-04-15T02:41:31.899Z,67.61
2023-04-15T02:42:31.980Z,67.72
2023-04-15T02:43:32.085Z,67.61
2023-04-15T02:44:32.171Z,67.61
2023-04-15T02:45:32.236Z,67.61
2023-04-15T02:46:32.354Z,67.72
2023-04-15T02:47:32.488Z,67.82
2023-04-15T02:48:32.483Z,67.85
2023-04-15T02:49:32.548Z,67.96
2023-04-15T02:50:32.616Z,68.06
2023-04-15T02:51:32.715Z,68.16
2023-04-15T02:52:32.786Z,68.27
2023-04-15T02:53:32.876Z,68.16
2023-04-15T02:54:32.953Z,68.16
2023-04-15T02:55:33.056Z,68.16
2023-04-15T02:56:33.135Z,68.16
2023-04-15T02:57:33.243Z,68.16
2023-04-15T02:58:33.326Z,68.27
2023-04-15T02:59:33.363Z,68.27
2023-04-15T03:00:33.480Z,68.27
2023-04-15T03:01:33.613Z,68.37
2023-04-15T03:02:33.714Z,68.37
2023-04-15T03:03:33.812Z,68.37
2023-04-15T03:04:33.832Z,68.27
2023-04-15T03:05:33.911Z,68.16
2023-04-15T03:06:33.975Z,68.06
2023-04-15T03:07:34.079Z,67.96
2023-04-15T03:08:34.211Z,67.96
2023-04-15T03:09:34.198Z,67.96
2023-04-15T03:10:34.276Z,68.06
2023-04-15T03:11:36.395Z,68.06
2023-04-15T03:12:34.451Z,67.75
2023-04-15T03:13:34.593Z,67.75
2023-04-15T03:14:34.626Z,67.85
2023-04-15T03:15:34.743Z,68.06
2023-04-15T03:16:34.784Z,68.06
2023-04-15T03:17:34.889Z,68.16
2023-04-15T03:18:34.936Z,68.06
2023-04-15T03:19:34.993Z,68.06
2023-04-15T03:20:35.128Z,68.06
2023-04-15T03:21:35.145Z,68.06
2023-04-15T03:22:35.202Z,67.96
2023-04-15T03:23:35.317Z,67.85
2023-04-15T03:24:35.375Z,67.85
2023-04-15T03:25:35.499Z,67.85
2023-04-15T03:26:50.768Z,67.85
2023-04-15T03:28:15.533Z,67.85
2023-04-15T03:28:35.763Z,67.85
2023-04-15T03:29:35.815Z,67.85
2023-04-15T03:30:35.937Z,67.85
2023-04-15T03:31:36.066Z,67.85
2023-04-15T03:32:36.123Z,67.85
2023-04-15T03:33:36.217Z,67.85
2023-04-15T03:34:36.199Z,67.85
2023-04-15T03:35:36.332Z,67.85
2023-04-15T03:36:36.381Z,67.85
2023-04-15T03:38:56.859Z,67.65
2023-04-15T03:39:58.000Z,67.44
2023-04-15T03:40:57.932Z,67.58
2023-04-15T03:41:57.996Z,67.68
2023-04-15T03:42:58.110Z,67.68
2023-04-15T03:43:58.178Z,67.58
2023-04-15T03:44:58.290Z,67.58
2023-04-15T03:45:59.708Z,67.58
2023-04-15T03:46:58.443Z,67.58
2023-04-15T03:48:07.303Z,67.58
2023-04-15T03:48:58.667Z,67.68
2023-04-15T03:49:58.698Z,67.68
2023-04-15T03:50:58.773Z,67.68
2023-04-15T03:51:58.945Z,67.78
2023-04-15T03:53:05.449Z,67.78
2023-04-15T03:53:59.065Z,67.78
2023-04-15T03:54:59.083Z,67.78
2023-04-15T03:55:59.175Z,67.91
2023-04-15T03:56:59.277Z,67.88
2023-04-15T03:57:59.312Z,67.88
2023-04-15T03:58:59.649Z,67.88
2023-04-15T03:59:59.501Z,67.78
2023-04-15T04:00:59.588Z,67.82
2023-04-15T04:01:59.704Z,67.82
2023-04-15T04:02:59.939Z,67.82
2023-04-15T04:03:59.996Z,67.78
2023-04-15T04:04:59.945Z,67.71
2023-04-15T04:06:00.001Z,67.50
2023-04-15T04:07:00.137Z,67.61
2023-04-15T04:08:00.176Z,67.61
2023-04-15T04:09:00.549Z,67.71
2023-04-15T04:10:00.322Z,67.71
2023-04-15T04:11:00.391Z,67.91
2023-04-15T04:12:00.483Z,67.82
2023-04-15T04:13:00.592Z,67.71
2023-04-15T04:14:00.684Z,67.61
2023-04-15T04:15:00.755Z,67.61
2023-04-15T04:16:00.894Z,67.61
2023-04-15T04:17:00.914Z,67.71
2023-04-15T04:18:01.047Z,67.71
2023-04-15T04:19:01.336Z,67.82
2023-04-15T04:20:01.173Z,67.82
2023-04-15T04:21:01.269Z,67.82
2023-04-15T04:22:01.326Z,67.91
2023-04-15T04:23:01.429Z,67.91
2023-04-15T04:24:01.541Z,67.91
2023-04-15T04:25:01.580Z,67.82
2023-04-15T04:26:01.653Z,67.82
2023-04-15T04:27:01.760Z,67.82
2023-04-15T04:28:01.834Z,67.82
2023-04-15T04:29:02.189Z,67.82
2023-04-15T04:30:01.965Z,67.91
2023-04-15T04:31:02.077Z,67.82
2023-04-15T04:32:02.153Z,67.71
2023-04-15T04:33:02.242Z,67.82
2023-04-15T04:34:02.320Z,67.82
2023-04-15T04:35:02.413Z,67.82
2023-04-15T04:36:02.465Z,67.91
2023-04-15T04:37:02.579Z,67.82
2023-04-15T04:38:02.629Z,67.82
2023-04-15T04:39:02.997Z,67.91
2023-04-15T04:40:02.832Z,67.91
2023-04-15T04:41:02.914Z,68.02
2023-04-15T04:42:02.998Z,68.02
2023-04-15T04:43:03.066Z,68.02
2023-04-15T04:44:03.155Z,68.12
2023-04-15T04:45:03.230Z,68.12
2023-04-15T04:46:03.351Z,68.12
2023-04-15T04:47:03.381Z,68.12
2023-04-15T04:48:03.511Z,68.02
2023-04-15T04:49:03.760Z,67.91
2023-04-15T04:50:03.598Z,67.82
2023-04-15T04:51:03.745Z,67.71
2023-04-15T04:52:03.786Z,67.71
2023-04-15T04:53:03.872Z,67.71
2023-04-15T04:54:04.000Z,67.71
2023-04-15T04:55:04.020Z,67.82
2023-04-15T04:56:04.086Z,67.71
2023-04-15T04:57:04.201Z,67.71
2023-04-15T04:58:04.260Z,67.71
2023-04-15T04:59:04.362Z,67.82
2023-04-15T05:00:04.414Z,67.82
2023-04-15T05:01:04.574Z,67.88
2023-04-15T05:02:04.698Z,67.88
2023-04-15T05:03:04.849Z,67.88
2023-04-15T05:04:05.095Z,67.88
2023-04-15T05:05:04.823Z,67.88
2023-04-15T05:06:04.880Z,67.99
2023-04-15T05:07:05.008Z,67.99
2023-04-15T05:08:05.056Z,67.99
2023-04-15T05:09:05.152Z,67.88
2023-04-15T05:10:05.220Z,67.78
2023-04-15T05:11:05.332Z,67.88
2023-04-15T05:12:05.388Z,67.99
2023-04-15T05:13:05.481Z,67.99
2023-04-15T05:14:05.564Z,67.99
2023-04-15T05:15:05.625Z,67.99
2023-04-15T05:16:05.746Z,67.88
2023-04-15T05:17:05.862Z,67.88
2023-04-15T05:18:05.991Z,67.99
2023-04-15T05:19:06.041Z,68.09
2023-04-15T05:20:06.062Z,68.09
2023-04-15T05:21:06.170Z,67.99
2023-04-15T05:22:06.264Z,67.99
2023-04-15T05:23:06.343Z,67.99
2023-04-15T05:24:06.405Z,67.99
2023-04-15T05:25:06.492Z,67.88
2023-04-15T05:26:06.545Z,67.68
2023-04-15T05:27:06.665Z,67.68
2023-04-15T05:28:06.744Z,67.58
2023-04-15T05:29:06.834Z,67.58
2023-04-15T05:30:06.885Z,67.68
2023-04-15T05:31:07.072Z,67.88
2023-04-15T05:32:07.083Z,67.78
2023-04-15T05:33:07.148Z,67.47
2023-04-15T05:34:07.208Z,67.37
2023-04-15T05:35:07.264Z,67.47
2023-04-15T05:36:07.374Z,67.68
2023-04-15T05:37:07.432Z,67.68
2023-04-15T05:38:07.494Z,67.68
2023-04-15T05:39:07.593Z,67.58
2023-04-15T05:40:07.648Z,67.68
2023-04-15T05:41:07.768Z,67.78
2023-04-15T05:42:07.813Z,67.88
2023-04-15T05:43:07.926Z,67.88
2023-04-15T05:44:08.006Z,67.99
2023-04-15T05:45:08.070Z,67.99
2023-04-15T05:46:08.160Z,68.19
2023-04-15T05:47:08.217Z,68.19
2023-04-15T05:48:08.306Z,68.09
2023-04-15T05:49:08.418Z,68.09
2023-04-15T05:50:08.519Z,67.88
2023-04-15T05:51:08.579Z,67.88
2023-04-15T05:52:08.645Z,67.88
2023-04-15T05:53:08.753Z,67.88
2023-04-15T05:54:08.814Z,67.78
2023-04-15T05:55:08.921Z,67.78
2023-04-15T05:56:09.025Z,67.88
2023-04-15T05:57:09.083Z,67.99
2023-04-15T05:58:09.136Z,67.99
2023-04-15T05:59:09.252Z,67.88
2023-04-15T06:00:09.353Z,67.99
2023-04-15T06:01:09.401Z,68.09
2023-04-15T06:02:09.461Z,67.99
2023-04-15T06:03:09.668Z,68.19
2023-04-15T06:04:09.672Z,68.30
2023-04-15T06:05:10.112Z,68.19
2023-04-15T06:06:09.873Z,68.19
2023-04-15T06:07:09.895Z,68.19
2023-04-15T06:08:09.980Z,68.30
2023-04-15T06:09:10.081Z,68.40
2023-04-15T06:10:10.125Z,68.51
2023-04-15T06:11:10.254Z,68.40
2023-04-15T06:12:10.316Z,68.19
2023-04-15T06:13:10.351Z,68.09
2023-04-15T06:14:10.467Z,68.09
2023-04-15T06:15:10.547Z,68.19
2023-04-15T06:16:10.666Z,67.96
2023-04-15T06:17:10.719Z,67.88
2023-04-15T06:18:10.807Z,67.85
2023-04-15T06:19:10.912Z,67.85
2023-04-15T06:20:10.991Z,67.96
2023-04-15T06:21:11.122Z,68.06
2023-04-15T06:22:11.165Z,68.06
2023-04-15T06:23:11.276Z,67.96
2023-04-15T06:24:11.322Z,68.06
2023-04-15T06:25:11.438Z,68.27
2023-04-15T06:26:11.538Z,68.37
2023-04-15T06:27:11.615Z,68.16
2023-04-15T06:28:11.657Z,68.16
2023-04-15T06:29:11.768Z,68.27
2023-04-15T06:30:11.832Z,68.37
2023-04-15T06:31:11.970Z,68.37
2023-04-15T06:32:12.002Z,68.37
2023-04-15T06:33:12.056Z,68.37
2023-04-15T06:34:12.165Z,68.37
2023-04-15T06:35:12.271Z,68.27
2023-04-15T06:36:12.352Z,68.24
2023-04-15T06:37:12.415Z,68.24
2023-04-15T06:38:12.493Z,68.24
2023-04-15T06:39:12.600Z,68.34
2023-04-15T06:40:12.672Z,68.34
2023-04-15T06:41:12.778Z,68.13
2023-04-15T06:42:12.820Z,68.13
2023-04-15T06:43:12.925Z,68.24
2023-04-15T06:44:12.972Z,68.24
2023-04-15T06:45:13.094Z,68.34
2023-04-15T06:46:13.182Z,68.34
2023-04-15T06:47:13.256Z,68.44
2023-04-15T06:48:13.335Z,68.54
2023-04-15T06:49:13.426Z,68.62
2023-04-15T06:50:13.488Z,68.62
2023-04-15T06:51:13.613Z,68.51
2023-04-15T06:52:13.620Z,68.41
2023-04-15T06:53:13.796Z,68.21
2023-04-15T06:54:13.791Z,68.10
2023-04-15T06:55:13.917Z,68.10
2023-04-15T06:56:14.000Z,68.10
2023-04-15T06:57:14.116Z,68.10
2023-04-15T06:58:14.169Z,68.30
2023-04-15T06:59:14.239Z,68.30
2023-04-15T07:00:14.298Z,68.30
2023-04-15T07:01:14.497Z,68.30
2023-04-15T07:02:14.505Z,68.30
2023-04-15T07:03:14.597Z,68.21
2023-04-15T07:04:14.609Z,68.10
2023-04-15T07:05:14.705Z,67.90
2023-04-15T07:06:14.785Z,67.90
2023-04-15T07:07:14.841Z,68.10
2023-04-15T07:08:14.901Z,67.90
2023-04-15T07:09:14.997Z,67.90
2023-04-15T07:10:15.090Z,67.90
2023-04-15T07:11:15.254Z,67.90
2023-04-15T07:12:15.273Z,68.00
2023-04-15T07:13:15.369Z,68.00
2023-04-15T07:14:15.495Z,68.00
2023-04-15T07:15:15.489Z,68.00
2023-04-15T07:16:15.659Z,67.48
2023-04-15T07:17:15.661Z,67.27
2023-04-15T07:18:15.768Z,67.38
2023-04-15T07:19:15.807Z,67.45
2023-04-15T07:20:15.917Z,67.45
2023-04-15T07:21:16.054Z,67.35
2023-04-15T07:22:16.082Z,67.35
2023-04-15T07:23:16.200Z,67.14
2023-04-15T07:24:16.246Z,67.14
2023-04-15T07:25:16.364Z,67.14
2023-04-15T07:26:16.453Z,67.14
2023-04-15T07:27:16.510Z,67.24
2023-04-15T07:28:16.548Z,67.35
2023-04-15T07:29:16.663Z,67.35
2023-04-15T07:30:16.720Z,67.14
2023-04-15T07:31:16.888Z,67.03
2023-04-15T07:32:16.872Z,66.94
2023-04-15T07:33:16.963Z,66.94
2023-04-15T07:34:17.034Z,66.94
2023-04-15T07:35:17.103Z,66.94
2023-04-15T07:36:17.169Z,66.94
2023-04-15T07:37:17.286Z,67.03
2023-04-15T07:38:17.354Z,67.03
2023-04-15T07:39:17.451Z,66.80
2023-04-15T07:40:17.505Z,66.80
2023-04-15T07:41:17.610Z,67.00
2023-04-15T07:42:17.699Z,67.11
2023-04-15T07:43:17.818Z,67.21
2023-04-15T07:44:17.911Z,67.21
2023-04-15T07:45:18.017Z,67.42
2023-04-15T07:46:18.127Z,67.42
2023-04-15T07:47:18.194Z,67.42
2023-04-15T07:48:18.275Z,67.42
2023-04-15T07:49:18.401Z,67.42
2023-04-15T07:50:18.445Z,67.52
2023-04-15T07:51:18.520Z,67.42
2023-04-15T07:52:18.590Z,67.32
2023-04-15T07:53:18.649Z,67.32
2023-04-15T07:54:18.776Z,67.00
2023-04-15T07:55:18.827Z,66.91
2023-04-15T07:56:18.942Z,66.91
2023-04-15T07:57:19.014Z,66.91
2023-04-15T07:58:19.144Z,66.70
2023-04-15T07:59:19.133Z,66.36
2023-04-15T08:00:19.232Z,66.46
2023-04-15T08:01:19.285Z,66.56
2023-04-15T08:02:19.410Z,66.67
2023-04-15T08:03:19.499Z,66.56
2023-04-15T08:04:19.752Z,66.46
2023-04-15T08:05:19.695Z,66.46
2023-04-15T08:06:19.680Z,66.36
2023-04-15T08:07:19.808Z,66.43
2023-04-15T08:08:19.865Z,66.43
2023-04-15T08:09:19.978Z,66.43
2023-04-15T08:10:20.056Z,66.33
2023-04-15T08:11:20.122Z,66.22
2023-04-15T08:12:20.165Z,66.02
2023-04-15T08:13:20.271Z,65.92
2023-04-15T08:14:20.393Z,65.61
2023-04-15T08:15:20.465Z,64.89
2023-04-15T08:16:20.551Z,64.78
2023-04-15T08:17:20.644Z,64.78
2023-04-15T08:18:20.718Z,64.89
2023-04-15T08:19:20.798Z,64.89
2023-04-15T08:20:20.954Z,64.78
2023-04-15T08:21:20.957Z,64.89
2023-04-15T08:22:21.992Z,64.89
2023-04-15T08:23:21.116Z,64.27
2023-04-15T08:24:21.250Z,63.45
2023-04-15T08:25:21.331Z,62.70
2023-04-15T08:26:21.411Z,62.59
2023-04-15T08:27:21.493Z,62.79
2023-04-15T08:28:21.538Z,63.10
2023-04-15T08:29:21.612Z,63.31
2023-04-15T08:30:21.675Z,63.52
2023-04-15T08:31:21.764Z,63.42
2023-04-15T08:32:21.842Z,63.42
2023-04-15T08:33:21.884Z,63.52
2023-04-15T08:34:22.005Z,63.69
2023-04-15T08:35:22.057Z,63.79
2023-04-15T08:36:22.136Z,63.90
2023-04-15T08:37:22.216Z,63.90
2023-04-15T08:38:22.313Z,64.00
2023-04-15T08:39:22.441Z,64.00
2023-04-15T08:40:22.492Z,63.69
2023-04-15T08:41:22.550Z,63.69
2023-04-15T08:42:22.686Z,63.49
2023-04-15T08:43:22.739Z,63.49
2023-04-15T08:44:22.893Z,63.59
2023-04-15T08:45:22.908Z,63.59
2023-04-15T08:46:23.001Z,63.69
2023-04-15T08:47:23.190Z,63.69
2023-04-15T08:48:23.131Z,63.59
2023-04-15T08:49:23.244Z,63.59
2023-04-15T08:50:23.286Z,63.49
2023-04-15T08:51:24.563Z,63.59
2023-04-15T08:52:23.475Z,63.28
2023-04-15T08:53:23.585Z,63.28
2023-04-15T08:54:23.678Z,63.18
2023-04-15T08:55:23.733Z,63.28
2023-04-15T08:56:23.906Z,63.07
2023-04-15T08:57:23.931Z,63.05
2023-04-15T08:58:24.052Z,63.05
2023-04-15T08:59:24.162Z,62.84
2023-04-15T09:00:24.233Z,62.84
2023-04-15T09:01:24.316Z,62.84
2023-04-15T09:02:24.494Z,62.63
2023-04-15T09:03:24.544Z,62.53
2023-04-15T09:04:24.623Z,62.02
2023-04-15T09:05:24.660Z,61.68
2023-04-15T09:06:24.753Z,60.96
2023-04-15T09:07:24.783Z,60.75
2023-04-15T09:08:24.896Z,60.86
2023-04-15T09:09:25.002Z,61.07
2023-04-15T09:10:25.047Z,60.63
2023-04-15T09:11:25.144Z,60.83
2023-04-15T09:12:25.289Z,61.04
2023-04-15T09:13:25.325Z,61.14
2023-04-15T09:14:25.422Z,60.73
2023-04-15T09:15:25.460Z,60.63
2023-04-15T09:16:25.622Z,60.63
2023-04-15T09:17:25.649Z,60.63
2023-04-15T09:18:25.688Z,60.73
2023-04-15T09:19:25.781Z,60.83
2023-04-15T09:20:25.872Z,60.01
2023-04-15T09:21:25.927Z,59.67
2023-04-15T09:22:26.040Z,59.98
2023-04-15T09:23:26.074Z,59.98
2023-04-15T09:24:26.204Z,60.19
2023-04-15T09:25:26.285Z,60.29
2023-04-15T09:26:26.334Z,60.39
2023-04-15T09:27:26.423Z,60.80
2023-04-15T09:28:26.519Z,60.91
2023-04-15T09:29:26.618Z,60.26
2023-04-15T09:30:26.656Z,60.26
2023-04-15T09:31:26.793Z,60.26
2023-04-15T09:32:26.863Z,60.05
2023-04-15T09:33:26.909Z,59.85
2023-04-15T09:34:27.045Z,59.95
2023-04-15T09:35:27.081Z,60.23
2023-04-15T09:36:27.171Z,60.03
2023-04-15T09:37:32.304Z,59.92
2023-04-15T09:38:27.358Z,60.23
2023-04-15T09:39:27.507Z,60.00
2023-04-15T09:40:27.575Z,59.69
2023-04-15T09:41:27.618Z,59.18
2023-04-15T09:42:27.728Z,58.77
2023-04-15T09:43:27.833Z,59.38
2023-04-15T09:44:27.915Z,59.66
2023-04-15T09:45:29.646Z,59.36
2023-04-15T09:46:28.095Z,59.15
2023-04-15T09:47:28.162Z,58.95
2023-04-15T09:48:28.215Z,58.33
2023-04-15T09:49:28.396Z,57.92
2023-04-15T09:50:28.388Z,58.33
2023-04-15T09:51:28.490Z,58.54
2023-04-15T09:52:28.802Z,58.64
2023-04-15T09:53:37.746Z,58.23
2023-04-15T09:54:27.752Z,58.44
2023-04-15T09:55:28.877Z,58.64
2023-04-15T09:56:28.897Z,58.84
2023-04-15T09:57:28.998Z,58.95
2023-04-15T09:58:29.045Z,59.05
2023-04-15T09:59:29.088Z,59.25
2023-04-15T10:00:29.204Z,59.25
2023-04-15T10:01:29.309Z,59.25
2023-04-15T10:02:29.423Z,59.05
2023-04-15T10:03:29.614Z,59.05
2023-04-15T10:04:29.540Z,58.74
2023-04-15T10:05:29.866Z,58.12
2023-04-15T10:06:29.656Z,58.03
2023-04-15T10:07:29.733Z,58.00
2023-04-15T10:08:29.811Z,57.89
2023-04-15T10:09:29.855Z,57.79
2023-04-15T10:10:29.971Z,57.79
2023-04-15T10:11:31.633Z,57.69
2023-04-15T10:12:30.193Z,56.77
2023-04-15T10:13:30.169Z,56.67
2023-04-15T10:14:30.246Z,56.35
2023-04-15T10:15:30.413Z,56.46
2023-04-15T10:16:30.440Z,56.67
2023-04-15T10:17:31.797Z,56.05
2023-04-15T10:18:30.569Z,55.13
2023-04-15T10:19:30.671Z,54.00
2023-04-15T10:20:30.827Z,52.87
2023-04-15T10:21:30.867Z,53.49
2023-04-15T10:22:30.963Z,54.08
2023-04-15T10:23:31.036Z,54.59
2023-04-15T10:24:31.127Z,54.90
2023-04-15T10:25:31.248Z,54.59
2023-04-15T10:26:31.273Z,54.28
2023-04-15T10:27:31.335Z,54.08
2023-04-15T10:28:31.450Z,53.26
2023-04-15T10:29:31.538Z,53.36
2023-04-15T10:30:31.643Z,53.26
2023-04-15T10:31:31.679Z,53.05
2023-04-15T10:32:31.801Z,53.05
2023-04-15T10:33:31.861Z,53.23
2023-04-15T10:34:31.933Z,53.33
2023-04-15T10:35:32.031Z,53.54
2023-04-15T10:36:32.088Z,53.85
2023-04-15T10:37:32.254Z,54.16
2023-04-15T10:38:32.414Z,54.25
2023-04-15T10:39:32.356Z,53.85
2023-04-15T10:40:32.522Z,53.33
2023-04-15T10:41:32.636Z,53.54
2023-04-15T10:42:32.576Z,53.44
2023-04-15T10:43:32.637Z,53.54
2023-04-15T10:44:32.700Z,53.33
2023-04-15T10:45:34.784Z,53.23
2023-04-15T10:46:32.887Z,52.72
2023-04-15T10:47:32.982Z,52.83
2023-04-15T10:48:33.020Z,53.23
2023-04-15T10:49:33.060Z,53.03
2023-04-15T10:50:33.137Z,52.42
2023-04-15T10:51:33.233Z,52.11
2023-04-15T10:52:33.328Z,52.00
2023-04-15T10:53:33.397Z,51.80
2023-04-15T10:54:33.529Z,51.90
2023-04-15T10:55:33.703Z,52.11
2023-04-15T10:56:33.706Z,52.11
2023-04-15T10:57:33.813Z,52.39
2023-04-15T10:58:33.876Z,52.80
2023-04-15T10:59:33.924Z,53.00
2023-04-15T11:00:34.005Z,53.31
2023-04-15T11:01:34.128Z,53.41
2023-04-15T11:02:34.480Z,53.21
2023-04-15T11:03:34.509Z,52.90
2023-04-15T11:04:34.429Z,52.80
2023-04-15T11:05:34.397Z,52.59
2023-04-15T11:06:34.520Z,52.29
2023-04-15T11:07:34.587Z,52.19
2023-04-15T11:08:34.743Z,51.78
2023-04-15T11:09:34.778Z,51.06
2023-04-15T11:10:34.852Z,51.16
2023-04-15T11:11:34.954Z,51.26
2023-04-15T11:12:35.035Z,51.57
2023-04-15T11:13:35.084Z,51.57
2023-04-15T11:14:35.177Z,51.37
2023-04-15T11:15:35.279Z,51.37
2023-04-15T11:16:35.429Z,51.16
2023-04-15T11:17:35.454Z,51.26
2023-04-15T11:18:35.549Z,51.37
2023-04-15T11:19:35.609Z,51.57
2023-04-15T11:20:35.709Z,51.26
2023-04-15T11:21:35.798Z,51.26
2023-04-15T11:22:35.845Z,50.45
2023-04-15T11:23:35.956Z,50.14
2023-04-15T11:24:36.046Z,50.55
2023-04-15T11:25:36.143Z,50.34
2023-04-15T11:26:36.224Z,50.55
2023-04-15T11:27:36.313Z,50.55
2023-04-15T11:28:37.444Z,50.65
2023-04-15T11:29:36.452Z,50.34
2023-04-15T11:30:36.536Z,50.34
2023-04-15T11:31:36.697Z,50.34
2023-04-15T11:32:36.683Z,50.32
2023-04-15T11:33:36.751Z,50.42
2023-04-15T11:34:36.823Z,50.42
2023-04-15T11:35:36.961Z,50.63
2023-04-15T11:36:36.975Z,50.52
2023-04-15T11:37:37.016Z,50.52
2023-04-15T11:38:37.109Z,50.63
2023-04-15T11:39:37.222Z,50.93
2023-04-15T11:40:37.264Z,50.91
2023-04-15T11:41:37.349Z,50.30
2023-04-15T11:42:48.596Z,50.09
2023-04-15T11:43:37.485Z,50.32
2023-04-15T11:44:37.591Z,50.42
2023-04-15T11:45:37.811Z,50.63
2023-04-15T11:46:37.742Z,50.60
2023-04-15T11:47:37.824Z,50.71
2023-04-15T11:48:37.882Z,50.83
2023-04-15T11:49:37.966Z,50.81
2023-04-15T11:50:38.021Z,50.83
2023-04-15T11:51:38.128Z,50.83
2023-04-15T11:52:38.193Z,50.63
2023-04-15T11:53:38.304Z,50.73
2023-04-15T11:54:38.404Z,50.63
2023-04-15T11:55:38.496Z,50.32
2023-04-15T11:56:38.583Z,50.32
2023-04-15T11:57:38.613Z,50.52
2023-04-15T11:58:38.708Z,50.40
2023-04-15T12:00:38.894Z,50.63
2023-04-15T12:01:38.984Z,51.04
2023-04-15T12:02:39.198Z,51.14
2023-04-15T12:03:39.247Z,51.01
2023-04-15T12:04:39.376Z,50.32
2023-04-15T12:05:39.318Z,49.91
2023-04-15T12:06:39.379Z,50.22
2023-04-15T12:07:39.484Z,50.32
2023-04-15T12:08:39.627Z,50.52
2023-04-15T12:09:39.678Z,50.63
2023-04-15T12:10:39.744Z,50.83
2023-04-15T12:11:39.844Z,50.73
2023-04-15T12:12:39.906Z,50.32
2023-04-15T12:13:40.037Z,50.52
2023-04-15T12:14:40.112Z,50.63
2023-04-15T12:15:40.222Z,50.52
2023-04-15T12:16:49.149Z,50.73
2023-04-15T12:17:51.694Z,50.83
2023-04-15T12:18:40.412Z,50.63
2023-04-15T12:19:40.478Z,50.22
2023-04-15T12:20:40.552Z,49.81
2023-04-15T12:21:40.657Z,49.60
2023-04-15T12:22:40.726Z,49.60
2023-04-15T12:23:40.810Z,49.50
2023-04-15T12:24:40.867Z,49.71
2023-04-15T12:25:40.954Z,49.71
2023-04-15T12:26:41.001Z,49.58
2023-04-15T12:27:41.073Z,49.38
2023-04-15T12:28:41.150Z,49.58
2023-04-15T12:29:41.216Z,49.68
2023-04-15T12:30:41.274Z,49.89
2023-04-15T12:31:41.456Z,49.99
2023-04-15T12:32:43.458Z,49.89
2023-04-15T12:33:41.589Z,49.79
2023-04-15T12:34:41.653Z,49.58
2023-04-15T12:35:41.735Z,49.68
2023-04-15T12:36:41.800Z,49.68
2023-04-15T12:37:41.970Z,49.79
2023-04-15T12:38:41.999Z,49.68
2023-04-15T12:39:42.086Z,49.99
2023-04-15T12:40:42.132Z,50.09
2023-04-15T12:41:42.225Z,50.07
2023-04-15T12:42:42.293Z,50.27
2023-04-15T12:43:42.419Z,50.37
2023-04-15T12:44:42.469Z,50.58
2023-04-15T12:45:42.518Z,50.58
2023-04-15T12:46:42.646Z,50.68
2023-04-15T12:47:42.770Z,50.40
2023-04-15T12:48:42.788Z,50.40
2023-04-15T12:49:42.862Z,50.20
2023-04-15T12:50:42.943Z,50.17
2023-04-15T12:51:43.009Z,50.17
2023-04-15T12:52:43.093Z,50.27
2023-04-15T12:53:43.204Z,50.27
2023-04-15T12:54:43.239Z,50.48
2023-04-15T12:55:43.331Z,50.58